CheckWX is a tool to help pilots better visualize weather data.  It is not intended as a substitute for an official pre-flight weather briefing.

15:24:49 UTC

KGBD METAR
Great Bend Municipal Airport
Great Bend, Kansas, USA
Current

29 mins ago

KGBD 211456Z AUTO 20011KT 10SM CLR M04/M07 A3054 RMK AO2 SLP373 T10441067 56006 FZRANO
Observed
Feb-21 @ 14:56 UTC
Wind
  • 200° at 11 KTS
Visibility
10 SM
Flight Rules
VFR
Cloud Levels
  • Clear skies
Temperature
-4°C / 25°F
Dewpoint
-7°C / 19°F
Humidity
80%
Altimeter
30.54" Hg
Pressure
1034.22 hPa
Previous

1 hour ago

KGBD 211356Z AUTO 20012KT 10SM CLR M08/M09 A3054 RMK AO2 SLP374 T10781089 FZRANO
Observed
Feb-21 @ 13:56 UTC
Wind
  • 200° at 12 KTS
Visibility
10 SM
Flight Rules
VFR
Cloud Levels
  • Clear skies
Temperature
-8°C / 18°F
Dewpoint
-9°C / 16°F
Humidity
93%
Altimeter
30.54" Hg
Pressure
1034.22 hPa
Previous

2 hours ago

KGBD 211256Z AUTO 19006KT 10SM CLR M11/M12 A3055 RMK AO2 SLP377 T11061122 FZRANO
Observed
Feb-21 @ 12:56 UTC
Wind
  • 190° at 6 KTS
Visibility
10 SM
Flight Rules
VFR
Cloud Levels
  • Clear skies
Temperature
-11°C / 12°F
Dewpoint
-12°C / 10°F
Humidity
92%
Altimeter
30.55" Hg
Pressure
1034.52 hPa